sensor_id;sensor_type;location;lat;lon;timestamp;P1;durP1;ratioP1;P2;durP2;ratioP2
2684;SDS011;1352;48.446;9.156;2022-10-19T00:01:11;14.37;;;10.37;;
2684;SDS011;1352;48.446;9.156;2022-10-19T00:03:40;11.60;;;10.40;;
2684;SDS011;1352;48.446;9.156;2022-10-19T00:06:11;12.83;;;8.57;;
2684;SDS011;1352;48.446;9.156;2022-10-19T00:08:40;9.67;;;7.70;;
2684;SDS011;1352;48.446;9.156;2022-10-19T00:11:08;8.67;;;7.13;;
2684;SDS011;1352;48.446;9.156;2022-10-19T00:13:37;8.63;;;6.90;;
2684;SDS011;1352;48.446;9.156;2022-10-19T00:16:08;9.40;;;7.93;;
2684;SDS011;1352;48.446;9.156;2022-10-19T00:18:36;8.33;;;7.53;;
2684;SDS011;1352;48.446;9.156;2022-10-19T00:21:04;7.63;;;6.93;;
2684;SDS011;1352;48.446;9.156;2022-10-19T00:23:31;8.67;;;7.80;;
2684;SDS011;1352;48.446;9.156;2022-10-19T00:25:59;13.00;;;8.60;;
2684;SDS011;1352;48.446;9.156;2022-10-19T00:28:26;9.97;;;7.60;;
2684;SDS011;1352;48.446;9.156;2022-10-19T00:30:55;10.67;;;9.57;;
2684;SDS011;1352;48.446;9.156;2022-10-19T00:33:22;9.10;;;7.27;;
2684;SDS011;1352;48.446;9.156;2022-10-19T00:35:50;6.47;;;5.97;;
2684;SDS011;1352;48.446;9.156;2022-10-19T00:38:18;11.53;;;6.90;;
2684;SDS011;1352;48.446;9.156;2022-10-19T00:40:47;6.17;;;5.67;;
2684;SDS011;1352;48.446;9.156;2022-10-19T00:43:14;6.83;;;6.00;;
2684;SDS011;1352;48.446;9.156;2022-10-19T00:45:42;7.20;;;6.50;;
2684;SDS011;1352;48.446;9.156;2022-10-19T00:48:11;7.40;;;6.80;;
2684;SDS011;1352;48.446;9.156;2022-10-19T00:50:42;5.10;;;4.63;;
2684;SDS011;1352;48.446;9.156;2022-10-19T00:53:09;14.60;;;7.37;;
2684;SDS011;1352;48.446;9.156;2022-10-19T00:55:37;10.70;;;7.07;;
2684;SDS011;1352;48.446;9.156;2022-10-19T00:58:06;7.03;;;6.40;;
2684;SDS011;1352;48.446;9.156;2022-10-19T01:00:34;7.60;;;5.83;;
2684;SDS011;1352;48.446;9.156;2022-10-19T01:03:01;7.27;;;6.57;;
2684;SDS011;1352;48.446;9.156;2022-10-19T01:05:31;7.73;;;6.93;;
2684;SDS011;1352;48.446;9.156;2022-10-19T01:07:59;9.33;;;6.20;;
2684;SDS011;1352;48.446;9.156;2022-10-19T01:10:29;7.03;;;6.00;;
2684;SDS011;1352;48.446;9.156;2022-10-19T01:13:09;23.13;;;9.50;;
2684;SDS011;1352;48.446;9.156;2022-10-19T01:15:44;7.90;;;7.20;;
2684;SDS011;1352;48.446;9.156;2022-10-19T01:18:18;8.70;;;5.93;;
2684;SDS011;1352;48.446;9.156;2022-10-19T01:27:01;10.07;;;7.10;;
2684;SDS011;1352;48.446;9.156;2022-10-19T01:29:53;7.27;;;6.57;;
2684;SDS011;1352;48.446;9.156;2022-10-19T01:32:23;6.80;;;6.00;;
2684;SDS011;1352;48.446;9.156;2022-10-19T01:35:01;8.27;;;6.77;;
2684;SDS011;1352;48.446;9.156;2022-10-19T01:37:34;7.10;;;6.30;;
2684;SDS011;1352;48.446;9.156;2022-10-19T01:40:08;6.73;;;6.03;;
2684;SDS011;1352;48.446;9.156;2022-10-19T01:42:39;10.03;;;8.03;;
2684;SDS011;1352;48.446;9.156;2022-10-19T01:45:12;7.03;;;6.33;;
2684;SDS011;1352;48.446;9.156;2022-10-19T01:47:45;61.17;;;21.83;;
2684;SDS011;1352;48.446;9.156;2022-10-19T01:50:18;11.83;;;7.07;;
2684;SDS011;1352;48.446;9.156;2022-10-19T01:52:51;8.80;;;5.90;;
2684;SDS011;1352;48.446;9.156;2022-10-19T01:55:21;44.67;;;8.80;;
2684;SDS011;1352;48.446;9.156;2022-10-19T01:57:52;9.80;;;7.77;;
2684;SDS011;1352;48.446;9.156;2022-10-19T02:00:24;8.87;;;7.00;;
2684;SDS011;1352;48.446;9.156;2022-10-19T02:02:53;9.90;;;7.93;;
2684;SDS011;1352;48.446;9.156;2022-10-19T02:05:21;10.27;;;8.40;;
2684;SDS011;1352;48.446;9.156;2022-10-19T02:07:53;9.00;;;8.10;;
2684;SDS011;1352;48.446;9.156;2022-10-19T02:10:24;7.07;;;6.47;;
2684;SDS011;1352;48.446;9.156;2022-10-19T02:12:51;9.93;;;7.60;;
2684;SDS011;1352;48.446;9.156;2022-10-19T02:15:21;9.00;;;7.87;;
2684;SDS011;1352;48.446;9.156;2022-10-19T02:17:53;9.53;;;7.83;;
2684;SDS011;1352;48.446;9.156;2022-10-19T02:20:24;10.90;;;8.60;;
2684;SDS011;1352;48.446;9.156;2022-10-19T02:22:52;7.47;;;6.73;;
2684;SDS011;1352;48.446;9.156;2022-10-19T02:25:20;6.33;;;5.77;;
2684;SDS011;1352;48.446;9.156;2022-10-19T02:27:48;6.30;;;5.70;;
2684;SDS011;1352;48.446;9.156;2022-10-19T02:30:16;6.97;;;6.30;;
2684;SDS011;1352;48.446;9.156;2022-10-19T02:32:48;8.40;;;7.57;;
2684;SDS011;1352;48.446;9.156;2022-10-19T02:35:16;48.20;;;10.80;;
2684;SDS011;1352;48.446;9.156;2022-10-19T02:37:43;8.27;;;7.37;;
2684;SDS011;1352;48.446;9.156;2022-10-19T02:40:11;12.33;;;8.03;;
2684;SDS011;1352;48.446;9.156;2022-10-19T02:42:39;7.90;;;7.10;;
2684;SDS011;1352;48.446;9.156;2022-10-19T02:45:10;6.80;;;5.73;;
2684;SDS011;1352;48.446;9.156;2022-10-19T02:47:42;15.33;;;10.27;;
2684;SDS011;1352;48.446;9.156;2022-10-19T02:50:16;38.70;;;13.43;;
2684;SDS011;1352;48.446;9.156;2022-10-19T02:52:45;20.10;;;11.53;;
2684;SDS011;1352;48.446;9.156;2022-10-19T02:55:12;19.63;;;11.43;;
2684;SDS011;1352;48.446;9.156;2022-10-19T02:57:39;14.33;;;9.77;;
2684;SDS011;1352;48.446;9.156;2022-10-19T03:00:07;11.67;;;9.53;;
2684;SDS011;1352;48.446;9.156;2022-10-19T03:02:35;10.73;;;8.90;;
2684;SDS011;1352;48.446;9.156;2022-10-19T03:05:02;8.53;;;7.67;;
2684;SDS011;1352;48.446;9.156;2022-10-19T03:07:31;10.03;;;9.07;;
2684;SDS011;1352;48.446;9.156;2022-10-19T03:09:58;7.90;;;7.10;;
2684;SDS011;1352;48.446;9.156;2022-10-19T03:12:25;9.63;;;7.30;;
2684;SDS011;1352;48.446;9.156;2022-10-19T03:14:52;8.47;;;7.40;;
2684;SDS011;1352;48.446;9.156;2022-10-19T03:17:19;7.60;;;6.77;;
2684;SDS011;1352;48.446;9.156;2022-10-19T03:19:46;8.27;;;7.47;;
2684;SDS011;1352;48.446;9.156;2022-10-19T03:22:13;22.10;;;11.57;;
2684;SDS011;1352;48.446;9.156;2022-10-19T03:24:42;35.23;;;15.33;;
2684;SDS011;1352;48.446;9.156;2022-10-19T03:27:09;10.70;;;9.60;;
2684;SDS011;1352;48.446;9.156;2022-10-19T03:29:36;54.00;;;12.53;;
2684;SDS011;1352;48.446;9.156;2022-10-19T03:32:03;10.90;;;5.80;;
2684;SDS011;1352;48.446;9.156;2022-10-19T03:34:30;67.40;;;14.93;;
2684;SDS011;1352;48.446;9.156;2022-10-19T03:36:57;8.40;;;7.50;;
2684;SDS011;1352;48.446;9.156;2022-10-19T03:39:24;26.37;;;9.63;;
2684;SDS011;1352;48.446;9.156;2022-10-19T03:41:53;10.93;;;7.10;;
2684;SDS011;1352;48.446;9.156;2022-10-19T03:44:20;10.57;;;9.00;;
2684;SDS011;1352;48.446;9.156;2022-10-19T03:46:47;23.77;;;8.80;;
2684;SDS011;1352;48.446;9.156;2022-10-19T03:49:14;9.83;;;8.43;;
2684;SDS011;1352;48.446;9.156;2022-10-19T03:51:41;18.13;;;9.40;;
2684;SDS011;1352;48.446;9.156;2022-10-19T03:54:11;10.00;;;8.77;;
2684;SDS011;1352;48.446;9.156;2022-10-19T03:56:39;15.60;;;8.50;;
2684;SDS011;1352;48.446;9.156;2022-10-19T03:59:10;10.30;;;8.30;;
2684;SDS011;1352;48.446;9.156;2022-10-19T04:01:40;11.67;;;8.50;;
2684;SDS011;1352;48.446;9.156;2022-10-19T04:04:09;14.90;;;9.83;;
2684;SDS011;1352;48.446;9.156;2022-10-19T04:06:39;10.00;;;8.60;;
2684;SDS011;1352;48.446;9.156;2022-10-19T04:09:09;11.53;;;7.63;;
2684;SDS011;1352;48.446;9.156;2022-10-19T04:11:38;10.03;;;8.27;;
2684;SDS011;1352;48.446;9.156;2022-10-19T04:14:05;8.80;;;7.90;;
2684;SDS011;1352;48.446;9.156;2022-10-19T04:16:34;11.73;;;8.60;;
2684;SDS011;1352;48.446;9.156;2022-10-19T04:19:01;11.20;;;7.83;;
2684;SDS011;1352;48.446;9.156;2022-10-19T04:21:29;12.77;;;9.23;;
2684;SDS011;1352;48.446;9.156;2022-10-19T04:23:58;11.37;;;9.10;;
2684;SDS011;1352;48.446;9.156;2022-10-19T04:26:26;8.60;;;7.70;;
2684;SDS011;1352;48.446;9.156;2022-10-19T04:28:55;10.23;;;7.10;;
2684;SDS011;1352;48.446;9.156;2022-10-19T04:31:23;10.57;;;8.30;;
2684;SDS011;1352;48.446;9.156;2022-10-19T04:33:52;10.00;;;8.30;;
2684;SDS011;1352;48.446;9.156;2022-10-19T04:36:19;10.90;;;9.60;;
2684;SDS011;1352;48.446;9.156;2022-10-19T04:38:46;13.07;;;11.27;;
2684;SDS011;1352;48.446;9.156;2022-10-19T04:41:14;56.90;;;15.43;;
2684;SDS011;1352;48.446;9.156;2022-10-19T04:43:42;10.63;;;8.67;;
2684;SDS011;1352;48.446;9.156;2022-10-19T04:46:11;10.60;;;8.30;;
2684;SDS011;1352;48.446;9.156;2022-10-19T04:48:39;8.10;;;7.30;;
2684;SDS011;1352;48.446;9.156;2022-10-19T04:51:08;11.83;;;9.63;;
2684;SDS011;1352;48.446;9.156;2022-10-19T04:53:37;12.50;;;9.60;;
2684;SDS011;1352;48.446;9.156;2022-10-19T04:56:05;13.47;;;10.27;;
2684;SDS011;1352;48.446;9.156;2022-10-19T04:58:34;17.43;;;10.93;;
2684;SDS011;1352;48.446;9.156;2022-10-19T05:01:05;15.77;;;9.90;;
2684;SDS011;1352;48.446;9.156;2022-10-19T05:03:33;10.80;;;9.40;;
2684;SDS011;1352;48.446;9.156;2022-10-19T05:06:00;14.50;;;8.50;;
2684;SDS011;1352;48.446;9.156;2022-10-19T05:08:29;10.80;;;9.63;;
2684;SDS011;1352;48.446;9.156;2022-10-19T05:10:59;16.00;;;8.90;;
2684;SDS011;1352;48.446;9.156;2022-10-19T05:13:26;12.73;;;10.20;;
2684;SDS011;1352;48.446;9.156;2022-10-19T05:15:54;11.00;;;9.90;;
2684;SDS011;1352;48.446;9.156;2022-10-19T05:18:21;13.70;;;10.27;;
2684;SDS011;1352;48.446;9.156;2022-10-19T05:20:48;12.87;;;10.40;;
2684;SDS011;1352;48.446;9.156;2022-10-19T05:23:16;13.80;;;9.50;;
2684;SDS011;1352;48.446;9.156;2022-10-19T05:25:44;16.87;;;10.00;;
2684;SDS011;1352;48.446;9.156;2022-10-19T05:28:11;286.17;;;37.50;;
2684;SDS011;1352;48.446;9.156;2022-10-19T05:30:38;19.70;;;13.73;;
2684;SDS011;1352;48.446;9.156;2022-10-19T05:33:05;31.60;;;10.47;;
2684;SDS011;1352;48.446;9.156;2022-10-19T05:35:32;55.37;;;13.03;;
2684;SDS011;1352;48.446;9.156;2022-10-19T05:37:59;10.90;;;9.10;;
2684;SDS011;1352;48.446;9.156;2022-10-19T05:40:26;18.97;;;11.27;;
2684;SDS011;1352;48.446;9.156;2022-10-19T05:42:55;14.43;;;10.10;;
2684;SDS011;1352;48.446;9.156;2022-10-19T05:45:22;12.87;;;11.50;;
2684;SDS011;1352;48.446;9.156;2022-10-19T05:47:49;18.00;;;12.40;;
2684;SDS011;1352;48.446;9.156;2022-10-19T05:50:16;18.70;;;13.87;;
2684;SDS011;1352;48.446;9.156;2022-10-19T05:52:43;20.57;;;13.67;;
2684;SDS011;1352;48.446;9.156;2022-10-19T05:55:10;17.17;;;12.00;;
2684;SDS011;1352;48.446;9.156;2022-10-19T05:57:37;21.67;;;15.57;;
2684;SDS011;1352;48.446;9.156;2022-10-19T06:00:06;17.70;;;12.70;;
2684;SDS011;1352;48.446;9.156;2022-10-19T06:02:34;18.90;;;13.90;;
2684;SDS011;1352;48.446;9.156;2022-10-19T06:05:01;20.57;;;13.17;;
2684;SDS011;1352;48.446;9.156;2022-10-19T06:07:28;18.70;;;14.37;;
2684;SDS011;1352;48.446;9.156;2022-10-19T06:09:55;24.63;;;15.00;;
2684;SDS011;1352;48.446;9.156;2022-10-19T06:12:22;33.60;;;17.53;;
2684;SDS011;1352;48.446;9.156;2022-10-19T06:14:49;18.43;;;12.63;;
2684;SDS011;1352;48.446;9.156;2022-10-19T06:17:18;14.73;;;12.13;;
2684;SDS011;1352;48.446;9.156;2022-10-19T06:19:45;19.13;;;12.97;;
2684;SDS011;1352;48.446;9.156;2022-10-19T06:22:12;21.63;;;14.23;;
2684;SDS011;1352;48.446;9.156;2022-10-19T06:24:39;16.70;;;11.97;;
2684;SDS011;1352;48.446;9.156;2022-10-19T06:27:06;17.67;;;12.50;;
2684;SDS011;1352;48.446;9.156;2022-10-19T06:29:33;17.20;;;12.50;;
2684;SDS011;1352;48.446;9.156;2022-10-19T06:32:01;16.40;;;12.80;;
2684;SDS011;1352;48.446;9.156;2022-10-19T06:34:30;24.97;;;16.40;;
2684;SDS011;1352;48.446;9.156;2022-10-19T06:36:57;19.53;;;13.60;;
2684;SDS011;1352;48.446;9.156;2022-10-19T06:39:24;18.37;;;12.63;;
2684;SDS011;1352;48.446;9.156;2022-10-19T06:41:51;16.23;;;12.70;;
2684;SDS011;1352;48.446;9.156;2022-10-19T06:44:18;18.73;;;12.50;;
2684;SDS011;1352;48.446;9.156;2022-10-19T06:46:45;20.37;;;14.37;;
2684;SDS011;1352;48.446;9.156;2022-10-19T06:49:12;17.50;;;13.93;;
2684;SDS011;1352;48.446;9.156;2022-10-19T06:51:41;20.70;;;15.17;;
2684;SDS011;1352;48.446;9.156;2022-10-19T06:54:08;18.37;;;13.97;;
2684;SDS011;1352;48.446;9.156;2022-10-19T06:56:35;18.90;;;13.03;;
2684;SDS011;1352;48.446;9.156;2022-10-19T06:59:02;19.53;;;13.17;;
2684;SDS011;1352;48.446;9.156;2022-10-19T07:01:29;19.13;;;13.03;;
2684;SDS011;1352;48.446;9.156;2022-10-19T07:03:56;16.10;;;13.37;;
2684;SDS011;1352;48.446;9.156;2022-10-19T07:06:25;17.43;;;13.40;;
2684;SDS011;1352;48.446;9.156;2022-10-19T07:08:54;29.30;;;26.80;;
2684;SDS011;1352;48.446;9.156;2022-10-19T07:11:21;14.40;;;10.60;;
2684;SDS011;1352;48.446;9.156;2022-10-19T07:13:48;15.13;;;12.07;;
2684;SDS011;1352;48.446;9.156;2022-10-19T07:16:17;13.33;;;11.77;;
2684;SDS011;1352;48.446;9.156;2022-10-19T07:18:48;16.00;;;12.50;;
2684;SDS011;1352;48.446;9.156;2022-10-19T07:21:17;18.00;;;14.30;;
2684;SDS011;1352;48.446;9.156;2022-10-19T07:23:48;18.00;;;12.43;;
2684;SDS011;1352;48.446;9.156;2022-10-19T07:26:18;16.47;;;13.30;;
2684;SDS011;1352;48.446;9.156;2022-10-19T07:28:48;17.10;;;12.87;;
2684;SDS011;1352;48.446;9.156;2022-10-19T07:31:16;14.67;;;12.80;;
2684;SDS011;1352;48.446;9.156;2022-10-19T07:33:44;18.87;;;13.90;;
2684;SDS011;1352;48.446;9.156;2022-10-19T07:36:11;15.83;;;11.33;;
2684;SDS011;1352;48.446;9.156;2022-10-19T07:38:39;13.97;;;10.60;;
2684;SDS011;1352;48.446;9.156;2022-10-19T07:41:07;15.60;;;11.20;;
2684;SDS011;1352;48.446;9.156;2022-10-19T07:43:38;16.23;;;11.60;;
2684;SDS011;1352;48.446;9.156;2022-10-19T07:46:07;14.63;;;11.90;;
2684;SDS011;1352;48.446;9.156;2022-10-19T07:48:36;15.53;;;12.00;;
2684;SDS011;1352;48.446;9.156;2022-10-19T07:51:05;16.73;;;11.83;;
2684;SDS011;1352;48.446;9.156;2022-10-19T07:53:33;15.37;;;11.27;;
2684;SDS011;1352;48.446;9.156;2022-10-19T07:56:04;14.77;;;11.87;;
2684;SDS011;1352;48.446;9.156;2022-10-19T07:58:33;14.17;;;11.53;;
2684;SDS011;1352;48.446;9.156;2022-10-19T08:01:02;16.10;;;13.10;;
2684;SDS011;1352;48.446;9.156;2022-10-19T08:03:31;16.70;;;11.53;;
2684;SDS011;1352;48.446;9.156;2022-10-19T08:05:59;17.37;;;12.80;;
2684;SDS011;1352;48.446;9.156;2022-10-19T08:08:29;17.17;;;12.00;;
2684;SDS011;1352;48.446;9.156;2022-10-19T08:11:01;14.93;;;11.67;;
2684;SDS011;1352;48.446;9.156;2022-10-19T08:13:32;16.30;;;11.63;;
2684;SDS011;1352;48.446;9.156;2022-10-19T08:15:59;14.00;;;11.13;;
2684;SDS011;1352;48.446;9.156;2022-10-19T08:18:27;11.80;;;9.93;;
2684;SDS011;1352;48.446;9.156;2022-10-19T08:20:55;14.47;;;11.43;;
2684;SDS011;1352;48.446;9.156;2022-10-19T08:23:22;19.20;;;12.07;;
2684;SDS011;1352;48.446;9.156;2022-10-19T08:25:49;13.40;;;10.63;;
2684;SDS011;1352;48.446;9.156;2022-10-19T08:28:16;14.30;;;11.43;;
2684;SDS011;1352;48.446;9.156;2022-10-19T08:30:43;15.40;;;11.73;;
2684;SDS011;1352;48.446;9.156;2022-10-19T08:33:11;12.70;;;10.73;;
2684;SDS011;1352;48.446;9.156;2022-10-19T08:35:41;16.83;;;10.00;;
2684;SDS011;1352;48.446;9.156;2022-10-19T08:38:08;14.50;;;10.00;;
2684;SDS011;1352;48.446;9.156;2022-10-19T08:40:35;17.33;;;9.87;;
2684;SDS011;1352;48.446;9.156;2022-10-19T08:43:03;12.83;;;8.60;;
2684;SDS011;1352;48.446;9.156;2022-10-19T08:45:38;10.50;;;8.50;;
2684;SDS011;1352;48.446;9.156;2022-10-19T08:48:24;9.27;;;8.27;;
2684;SDS011;1352;48.446;9.156;2022-10-19T08:50:56;10.10;;;9.03;;
2684;SDS011;1352;48.446;9.156;2022-10-19T08:53:28;9.13;;;8.03;;
2684;SDS011;1352;48.446;9.156;2022-10-19T08:56:03;10.53;;;8.97;;
2684;SDS011;1352;48.446;9.156;2022-10-19T08:58:47;10.10;;;9.10;;
2684;SDS011;1352;48.446;9.156;2022-10-19T09:01:27;9.60;;;8.27;;
2684;SDS011;1352;48.446;9.156;2022-10-19T09:04:05;11.47;;;10.27;;
2684;SDS011;1352;48.446;9.156;2022-10-19T09:06:40;10.87;;;9.20;;
2684;SDS011;1352;48.446;9.156;2022-10-19T09:09:23;14.10;;;11.00;;
2684;SDS011;1352;48.446;9.156;2022-10-19T09:11:54;11.27;;;10.20;;
2684;SDS011;1352;48.446;9.156;2022-10-19T09:14:27;12.23;;;9.40;;
2684;SDS011;1352;48.446;9.156;2022-10-19T09:16:58;12.50;;;10.53;;
2684;SDS011;1352;48.446;9.156;2022-10-19T09:19:28;11.33;;;10.27;;
2684;SDS011;1352;48.446;9.156;2022-10-19T09:21:58;13.10;;;9.47;;
2684;SDS011;1352;48.446;9.156;2022-10-19T09:24:31;14.13;;;10.40;;
2684;SDS011;1352;48.446;9.156;2022-10-19T09:27:04;10.47;;;9.37;;
2684;SDS011;1352;48.446;9.156;2022-10-19T09:29:37;10.07;;;8.50;;
2684;SDS011;1352;48.446;9.156;2022-10-19T09:32:09;11.23;;;8.93;;
2684;SDS011;1352;48.446;9.156;2022-10-19T09:34:40;10.03;;;9.00;;
2684;SDS011;1352;48.446;9.156;2022-10-19T09:37:13;10.20;;;9.30;;
2684;SDS011;1352;48.446;9.156;2022-10-19T09:39:40;8.57;;;7.67;;
2684;SDS011;1352;48.446;9.156;2022-10-19T09:42:12;10.83;;;9.63;;
2684;SDS011;1352;48.446;9.156;2022-10-19T09:44:46;9.27;;;8.37;;
2684;SDS011;1352;48.446;9.156;2022-10-19T09:47:31;11.27;;;6.13;;
2684;SDS011;1352;48.446;9.156;2022-10-19T09:50:16;6.97;;;6.23;;
2684;SDS011;1352;48.446;9.156;2022-10-19T09:52:46;6.30;;;5.70;;
2684;SDS011;1352;48.446;9.156;2022-10-19T09:58:04;6.63;;;6.03;;
2684;SDS011;1352;48.446;9.156;2022-10-19T10:00:42;6.83;;;6.23;;
2684;SDS011;1352;48.446;9.156;2022-10-19T10:03:21;7.37;;;6.67;;
2684;SDS011;1352;48.446;9.156;2022-10-19T10:05:50;9.03;;;7.37;;
2684;SDS011;1352;48.446;9.156;2022-10-19T10:08:23;6.90;;;5.93;;
2684;SDS011;1352;48.446;9.156;2022-10-19T10:10:54;8.77;;;6.70;;
2684;SDS011;1352;48.446;9.156;2022-10-19T10:13:25;6.27;;;5.60;;
2684;SDS011;1352;48.446;9.156;2022-10-19T10:15:54;10.37;;;6.47;;
2684;SDS011;1352;48.446;9.156;2022-10-19T10:18:23;6.90;;;5.90;;
2684;SDS011;1352;48.446;9.156;2022-10-19T10:20:55;7.53;;;6.83;;
2684;SDS011;1352;48.446;9.156;2022-10-19T10:23:26;7.60;;;6.80;;
2684;SDS011;1352;48.446;9.156;2022-10-19T10:25:56;6.50;;;5.90;;
2684;SDS011;1352;48.446;9.156;2022-10-19T10:28:25;6.50;;;5.83;;
2684;SDS011;1352;48.446;9.156;2022-10-19T10:30:54;6.10;;;5.50;;
2684;SDS011;1352;48.446;9.156;2022-10-19T10:33:26;5.73;;;5.17;;
2684;SDS011;1352;48.446;9.156;2022-10-19T10:35:56;7.30;;;6.23;;
2684;SDS011;1352;48.446;9.156;2022-10-19T10:38:29;7.47;;;6.30;;
2684;SDS011;1352;48.446;9.156;2022-10-19T10:40:59;6.87;;;5.90;;
2684;SDS011;1352;48.446;9.156;2022-10-19T10:43:34;6.47;;;5.87;;
2684;SDS011;1352;48.446;9.156;2022-10-19T10:46:04;5.97;;;5.40;;
2684;SDS011;1352;48.446;9.156;2022-10-19T10:48:35;8.60;;;5.77;;
2684;SDS011;1352;48.446;9.156;2022-10-19T10:51:07;7.10;;;6.17;;
2684;SDS011;1352;48.446;9.156;2022-10-19T10:53:47;7.10;;;6.10;;
2684;SDS011;1352;48.446;9.156;2022-10-19T10:56:22;7.43;;;6.63;;
2684;SDS011;1352;48.446;9.156;2022-10-19T10:58:53;6.37;;;5.73;;
2684;SDS011;1352;48.446;9.156;2022-10-19T11:01:27;10.40;;;6.80;;
2684;SDS011;1352;48.446;9.156;2022-10-19T11:03:59;7.83;;;7.03;;
2684;SDS011;1352;48.446;9.156;2022-10-19T11:06:29;7.90;;;7.10;;
2684;SDS011;1352;48.446;9.156;2022-10-19T11:09:06;8.63;;;7.20;;
2684;SDS011;1352;48.446;9.156;2022-10-19T11:11:41;9.07;;;7.60;;
2684;SDS011;1352;48.446;9.156;2022-10-19T11:14:21;7.90;;;7.10;;
2684;SDS011;1352;48.446;9.156;2022-10-19T11:16:55;9.30;;;7.07;;
2684;SDS011;1352;48.446;9.156;2022-10-19T11:19:25;7.00;;;6.40;;
2684;SDS011;1352;48.446;9.156;2022-10-19T11:21:56;8.00;;;6.70;;
2684;SDS011;1352;48.446;9.156;2022-10-19T11:24:41;10.90;;;8.10;;
2684;SDS011;1352;48.446;9.156;2022-10-19T11:27:24;8.80;;;7.77;;
2684;SDS011;1352;48.446;9.156;2022-10-19T11:30:02;7.50;;;6.80;;
2684;SDS011;1352;48.446;9.156;2022-10-19T11:32:37;11.57;;;7.03;;
2684;SDS011;1352;48.446;9.156;2022-10-19T11:35:18;9.63;;;7.27;;
2684;SDS011;1352;48.446;9.156;2022-10-19T11:37:57;9.43;;;7.93;;
2684;SDS011;1352;48.446;9.156;2022-10-19T11:40:36;7.97;;;7.17;;
2684;SDS011;1352;48.446;9.156;2022-10-19T11:43:09;11.20;;;8.43;;
2684;SDS011;1352;48.446;9.156;2022-10-19T11:45:44;11.10;;;8.70;;
2684;SDS011;1352;48.446;9.156;2022-10-19T11:48:28;12.03;;;9.40;;
2684;SDS011;1352;48.446;9.156;2022-10-19T11:51:28;10.50;;;9.07;;
2684;SDS011;1352;48.446;9.156;2022-10-19T11:54:05;9.87;;;8.00;;
2684;SDS011;1352;48.446;9.156;2022-10-19T11:56:48;9.70;;;7.50;;
2684;SDS011;1352;48.446;9.156;2022-10-19T11:59:20;10.83;;;8.93;;
2684;SDS011;1352;48.446;9.156;2022-10-19T12:01:58;13.60;;;10.23;;
2684;SDS011;1352;48.446;9.156;2022-10-19T12:04:39;18.30;;;12.77;;
2684;SDS011;1352;48.446;9.156;2022-10-19T12:07:18;15.00;;;11.70;;
2684;SDS011;1352;48.446;9.156;2022-10-19T12:10:05;13.73;;;9.83;;
2684;SDS011;1352;48.446;9.156;2022-10-19T12:12:43;17.40;;;12.80;;
2684;SDS011;1352;48.446;9.156;2022-10-19T12:15:18;17.97;;;12.43;;
2684;SDS011;1352;48.446;9.156;2022-10-19T12:17:50;18.83;;;13.00;;
2684;SDS011;1352;48.446;9.156;2022-10-19T12:20:23;22.93;;;14.67;;
2684;SDS011;1352;48.446;9.156;2022-10-19T12:22:57;25.50;;;15.07;;
2684;SDS011;1352;48.446;9.156;2022-10-19T12:25:26;23.40;;;15.47;;
2684;SDS011;1352;48.446;9.156;2022-10-19T12:27:55;24.30;;;16.70;;
2684;SDS011;1352;48.446;9.156;2022-10-19T12:30:23;23.70;;;16.33;;
2684;SDS011;1352;48.446;9.156;2022-10-19T12:32:54;26.20;;;16.00;;
2684;SDS011;1352;48.446;9.156;2022-10-19T12:35:38;31.27;;;16.00;;
2684;SDS011;1352;48.446;9.156;2022-10-19T12:38:15;25.63;;;15.67;;
2684;SDS011;1352;48.446;9.156;2022-10-19T12:40:49;23.33;;;16.40;;
2684;SDS011;1352;48.446;9.156;2022-10-19T12:43:25;27.10;;;16.97;;
2684;SDS011;1352;48.446;9.156;2022-10-19T12:46:01;27.93;;;17.40;;
2684;SDS011;1352;48.446;9.156;2022-10-19T12:48:36;28.20;;;15.90;;
2684;SDS011;1352;48.446;9.156;2022-10-19T12:51:04;24.90;;;15.67;;
2684;SDS011;1352;48.446;9.156;2022-10-19T12:53:36;25.73;;;17.87;;
2684;SDS011;1352;48.446;9.156;2022-10-19T12:56:06;27.70;;;16.90;;
2684;SDS011;1352;48.446;9.156;2022-10-19T12:58:45;27.10;;;17.20;;
2684;SDS011;1352;48.446;9.156;2022-10-19T13:01:18;21.13;;;15.43;;
2684;SDS011;1352;48.446;9.156;2022-10-19T13:03:49;20.43;;;14.27;;
2684;SDS011;1352;48.446;9.156;2022-10-19T13:06:28;22.07;;;13.00;;
2684;SDS011;1352;48.446;9.156;2022-10-19T13:08:58;20.60;;;15.30;;
2684;SDS011;1352;48.446;9.156;2022-10-19T13:11:28;20.77;;;14.80;;
2684;SDS011;1352;48.446;9.156;2022-10-19T13:13:58;21.83;;;14.70;;
2684;SDS011;1352;48.446;9.156;2022-10-19T13:16:40;20.47;;;16.27;;
2684;SDS011;1352;48.446;9.156;2022-10-19T13:19:21;29.77;;;17.53;;
2684;SDS011;1352;48.446;9.156;2022-10-19T13:21:52;24.90;;;16.70;;
2684;SDS011;1352;48.446;9.156;2022-10-19T13:27:51;19.57;;;15.10;;
2684;SDS011;1352;48.446;9.156;2022-10-19T13:33:46;21.60;;;14.70;;
2684;SDS011;1352;48.446;9.156;2022-10-19T13:36:15;20.90;;;13.77;;
2684;SDS011;1352;48.446;9.156;2022-10-19T13:38:47;22.33;;;17.23;;
2684;SDS011;1352;48.446;9.156;2022-10-19T13:44:27;25.17;;;16.50;;
2684;SDS011;1352;48.446;9.156;2022-10-19T13:47:18;22.37;;;16.23;;
2684;SDS011;1352;48.446;9.156;2022-10-19T13:53:06;24.93;;;17.87;;
2684;SDS011;1352;48.446;9.156;2022-10-19T13:55:53;30.50;;;18.60;;
2684;SDS011;1352;48.446;9.156;2022-10-19T13:58:31;25.53;;;19.00;;
2684;SDS011;1352;48.446;9.156;2022-10-19T14:01:14;24.87;;;17.13;;
2684;SDS011;1352;48.446;9.156;2022-10-19T14:03:59;22.10;;;17.30;;
2684;SDS011;1352;48.446;9.156;2022-10-19T14:06:39;20.17;;;16.00;;
2684;SDS011;1352;48.446;9.156;2022-10-19T14:12:14;17.27;;;14.30;;
2684;SDS011;1352;48.446;9.156;2022-10-19T14:14:48;19.33;;;15.70;;
2684;SDS011;1352;48.446;9.156;2022-10-19T14:17:18;14.60;;;12.67;;
2684;SDS011;1352;48.446;9.156;2022-10-19T14:19:52;16.80;;;14.10;;
2684;SDS011;1352;48.446;9.156;2022-10-19T14:22:25;22.50;;;17.00;;
2684;SDS011;1352;48.446;9.156;2022-10-19T14:25:06;25.10;;;18.27;;
2684;SDS011;1352;48.446;9.156;2022-10-19T14:27:44;22.80;;;17.40;;
2684;SDS011;1352;48.446;9.156;2022-10-19T14:30:20;26.30;;;16.80;;
2684;SDS011;1352;48.446;9.156;2022-10-19T14:32:48;19.30;;;16.60;;
2684;SDS011;1352;48.446;9.156;2022-10-19T14:35:19;19.30;;;15.97;;
2684;SDS011;1352;48.446;9.156;2022-10-19T14:37:48;20.73;;;16.20;;
2684;SDS011;1352;48.446;9.156;2022-10-19T14:40:23;21.50;;;17.77;;
2684;SDS011;1352;48.446;9.156;2022-10-19T14:42:52;20.47;;;17.60;;
2684;SDS011;1352;48.446;9.156;2022-10-19T14:45:20;21.47;;;19.13;;
2684;SDS011;1352;48.446;9.156;2022-10-19T14:47:50;17.77;;;15.80;;
2684;SDS011;1352;48.446;9.156;2022-10-19T14:50:31;22.43;;;16.73;;
2684;SDS011;1352;48.446;9.156;2022-10-19T14:53:07;18.00;;;14.47;;
2684;SDS011;1352;48.446;9.156;2022-10-19T14:55:46;20.17;;;17.13;;
2684;SDS011;1352;48.446;9.156;2022-10-19T14:58:17;21.43;;;16.70;;
2684;SDS011;1352;48.446;9.156;2022-10-19T15:00:48;18.77;;;16.17;;
2684;SDS011;1352;48.446;9.156;2022-10-19T15:03:18;21.67;;;16.97;;
2684;SDS011;1352;48.446;9.156;2022-10-19T15:05:53;27.10;;;21.10;;
2684;SDS011;1352;48.446;9.156;2022-10-19T15:08:23;25.33;;;17.30;;
2684;SDS011;1352;48.446;9.156;2022-10-19T15:10:58;15.33;;;13.37;;
2684;SDS011;1352;48.446;9.156;2022-10-19T15:13:26;15.87;;;13.47;;
2684;SDS011;1352;48.446;9.156;2022-10-19T15:15:57;13.83;;;12.20;;
2684;SDS011;1352;48.446;9.156;2022-10-19T15:18:25;16.17;;;14.47;;
2684;SDS011;1352;48.446;9.156;2022-10-19T15:21:01;17.60;;;14.70;;
2684;SDS011;1352;48.446;9.156;2022-10-19T15:23:34;16.20;;;13.90;;
2684;SDS011;1352;48.446;9.156;2022-10-19T15:26:14;14.90;;;13.40;;
2684;SDS011;1352;48.446;9.156;2022-10-19T15:28:44;15.13;;;13.53;;
2684;SDS011;1352;48.446;9.156;2022-10-19T15:31:13;16.17;;;13.90;;
2684;SDS011;1352;48.446;9.156;2022-10-19T15:33:44;13.60;;;12.20;;
2684;SDS011;1352;48.446;9.156;2022-10-19T15:36:16;17.60;;;14.27;;
2684;SDS011;1352;48.446;9.156;2022-10-19T15:38:46;18.33;;;14.70;;
2684;SDS011;1352;48.446;9.156;2022-10-19T15:41:16;16.10;;;14.40;;
2684;SDS011;1352;48.446;9.156;2022-10-19T15:43:46;16.40;;;14.70;;
2684;SDS011;1352;48.446;9.156;2022-10-19T15:46:23;16.23;;;14.53;;